createdAt,value
2022-09-22T00:00:42.544Z,118.50425
2022-09-22T00:05:44.509Z,118.0113
2022-09-22T00:10:46.054Z,116.54902
2022-09-22T00:15:47.790Z,114.16575
2022-09-22T00:20:49.471Z,117.03371
2022-09-22T00:25:51.105Z,116.06704
2022-09-22T00:30:52.846Z,116.06704
2022-09-22T00:35:54.821Z,114.16575
2022-09-22T00:40:56.424Z,116.06704
2022-09-22T00:45:58.045Z,113.23077
2022-09-22T00:50:59.824Z,110.48649
2022-09-22T00:56:01.590Z,114.16575
2022-09-22T01:01:03.477Z,112.30601
2022-09-22T01:06:05.215Z,110.93767
2022-09-22T01:11:06.964Z,109.14745
2022-09-22T01:16:08.658Z,107.39523
2022-09-22T01:21:10.109Z,105.25654
2022-09-22T01:26:11.571Z,104
2022-09-22T01:31:13.162Z,103.17313
2022-09-22T01:36:15.470Z,100.743
2022-09-22T01:41:16.926Z,100.743
2022-09-22T01:46:18.493Z,99.94937
2022-09-22T01:51:20.159Z,99.55556
2022-09-22T01:56:21.803Z,98.38596
2022-09-22T02:01:23.731Z,98
2022-09-22T02:06:25.825Z,100.34518
2022-09-22T02:11:27.543Z,104.83551
2022-09-22T02:16:29.242Z,104.83551
2022-09-22T02:21:31.027Z,106.10526
2022-09-22T02:26:32.773Z,101.54476
2022-09-22T02:31:34.555Z,99.55556
2022-09-22T02:36:36.711Z,100.34518
2022-09-22T02:41:38.411Z,99.94937
2022-09-22T02:46:40.259Z,100.743
2022-09-22T02:51:42.201Z,99.55556
2022-09-22T02:56:44.030Z,99.55556
2022-09-22T03:01:45.935Z,95.72414
2022-09-22T03:06:48.112Z,84
2022-09-22T03:11:49.875Z,99.55556
2022-09-22T03:16:51.602Z,103.58549
2022-09-22T03:21:53.242Z,102.35476
2022-09-22T03:26:54.948Z,100.743
2022-09-22T03:31:56.680Z,105.67979
2022-09-22T03:36:58.730Z,111.3913
2022-09-22T03:42:00.493Z,135.30435
2022-09-22T03:47:02.282Z,165.58273
2022-09-22T03:52:03.810Z,194.4065
2022-09-22T03:57:05.582Z,203.91561
2022-09-22T04:02:07.439Z,211.82609
2022-09-22T04:07:09.223Z,227.87097
2022-09-22T04:12:10.792Z,209.51724
2022-09-22T04:17:12.340Z,185.56863
2022-09-22T04:22:13.812Z,186.51969
2022-09-22T04:27:20.116Z,139.55556
2022-09-22T04:32:23.856Z,149.33333
2022-09-22T04:37:27.439Z,137.10345
2022-09-22T04:42:29.074Z,132.3792
2022-09-22T04:47:30.793Z,124.64516
2022-09-22T04:52:32.552Z,128.43114
2022-09-22T04:57:34.309Z,124.11696
2022-09-22T05:02:36.058Z,124.64516
2022-09-22T05:07:37.927Z,131.80488
2022-09-22T05:12:39.572Z,115.11111
2022-09-22T05:17:41.328Z,115.11111
2022-09-22T05:22:43.005Z,118.0113
2022-09-22T05:27:44.714Z,121.01149
2022-09-22T05:32:46.460Z,128.98498
2022-09-22T05:37:48.777Z,148.65116
2022-09-22T05:42:50.366Z,177.33333
2022-09-22T05:47:51.998Z,172.99628
2022-09-22T05:52:53.691Z,217.77778
2022-09-22T05:57:55.391Z,217.77778
2022-09-22T06:02:57.165Z,210.66667
2022-09-22T06:13:10.181Z,215.36564
2022-09-22T06:18:14.927Z,256.69036
2022-09-22T06:23:16.980Z,235.94313
2022-09-22T06:28:18.636Z,261.52577
2022-09-22T06:33:20.182Z,324.24691
2022-09-22T06:38:21.660Z,384
2022-09-22T06:43:24.357Z,421.51938
2022-09-22T06:48:25.833Z,453.09091
2022-09-22T06:53:27.711Z,368.82759
2022-09-22T06:58:29.436Z,360.21622
2022-09-22T07:03:30.923Z,354.66667
2022-09-22T07:08:32.545Z,396.94118
2022-09-22T07:13:34.487Z,396.94118
2022-09-22T07:18:36.190Z,421.51938
2022-09-22T07:23:37.802Z,393.63504
2022-09-22T07:28:39.494Z,429.03937
2022-09-22T07:33:41.183Z,448.91803
2022-09-22T07:38:42.868Z,466.0339
2022-09-22T07:43:44.852Z,448.91803
2022-09-22T07:48:46.586Z,479.65217
2022-09-22T07:53:48.356Z,429.03937
2022-09-22T07:58:50.185Z,519.70093
2022-09-22T08:03:51.990Z,403.70149
2022-09-22T08:08:53.874Z,542.05825
2022-09-22T08:13:56.470Z,733.74359
2022-09-22T08:18:58.211Z,572.57143
2022-09-22T08:23:59.974Z,660.27907
2022-09-22T08:29:01.757Z,613.56522
2022-09-22T08:34:03.571Z,704.49383
2022-09-22T08:39:05.467Z,704.49383
2022-09-22T08:44:07.661Z,765.33333
2022-09-22T08:49:09.406Z,704.49383
2022-09-22T08:54:10.875Z,660.27907
2022-09-22T08:59:12.383Z,677.33333
2022-09-22T09:04:13.847Z,849.88235
2022-09-22T09:09:15.408Z,891.69231
2022-09-22T09:14:17.961Z,849.88235
2022-09-22T09:19:19.424Z,891.69231
2022-09-22T09:29:52.631Z,937.54839
2022-09-22T09:34:55.911Z,1151.84314
2022-09-22T09:39:57.513Z,1254.6383
2022-09-22T09:44:59.273Z,891.69231
2022-09-22T09:50:00.930Z,1201.14286
2022-09-22T09:55:02.581Z,1376.55814
2022-09-22T10:00:04.126Z,1446.43902
2022-09-22T10:05:05.610Z,1283.13043
2022-09-22T10:10:07.292Z,1344
2022-09-22T10:15:08.930Z,1484
2022-09-22T10:20:10.402Z,1084.74074
2022-09-22T10:25:11.944Z,1254.6383
2022-09-22T10:30:13.575Z,1376.55814
2022-09-22T10:35:15.102Z,1312.88889
2022-09-22T10:40:16.682Z,1484
2022-09-22T10:45:18.529Z,1484
2022-09-22T10:50:20.005Z,1523.48718
2022-09-22T10:55:21.454Z,1283.13043
2022-09-22T11:00:23.053Z,1283.13043
2022-09-22T11:05:24.456Z,1446.43902
2022-09-22T11:10:26.037Z,1283.13043
2022-09-22T11:15:28.265Z,1312.88889
2022-09-22T11:20:30.012Z,1410.66667
2022-09-22T11:25:31.742Z,1704
2022-09-22T11:30:33.786Z,1523.48718
2022-09-22T11:35:35.369Z,1446.43902
2022-09-22T11:40:36.948Z,1227.33333
2022-09-22T11:45:38.830Z,1484
2022-09-22T11:50:40.317Z,1484
2022-09-22T11:55:41.863Z,1106.26415
2022-09-22T12:00:43.612Z,1755.76471
2022-09-22T12:05:45.166Z,1869
2022-09-22T12:10:46.634Z,1704
2022-09-22T12:15:49.374Z,1755.76471
2022-09-22T12:20:50.921Z,1810.66667
2022-09-22T12:25:52.400Z,1931.09677
2022-09-22T12:30:54.226Z,1704
2022-09-22T12:35:56.019Z,1755.76471
2022-09-22T12:40:57.771Z,2068.13793
2022-09-22T12:45:59.796Z,2144
2022-09-22T12:51:01.629Z,1869
2022-09-22T12:56:03.358Z,1997.33333
2022-09-22T13:01:05.305Z,2408
2022-09-22T13:06:07.092Z,2510.66667
2022-09-22T13:11:08.830Z,2622.26087
2022-09-22T13:16:10.853Z,1931.09677
2022-09-22T13:21:12.331Z,2313.23077
2022-09-22T13:26:13.828Z,3186.10526
2022-09-22T13:31:15.561Z,2622.26087
2022-09-22T13:36:17.220Z,3567.52941
2022-09-22T13:41:18.903Z,2622.26087
2022-09-22T13:46:20.860Z,4682.46154
2022-09-22T13:51:22.641Z,4050.66667
2022-09-22T13:56:24.375Z,4344
2022-09-22T14:01:26.309Z,3567.52941
2022-09-22T14:06:28.073Z,3366.22222
2022-09-22T14:11:29.836Z,4050.66667
2022-09-22T14:16:32.103Z,3024
2022-09-22T14:21:33.935Z,3186.10526
2022-09-22T14:26:35.367Z,3366.22222
2022-09-22T14:31:37.188Z,3024
2022-09-22T14:36:39.083Z,3567.52941
2022-09-22T14:41:40.802Z,5077.33333
2022-09-22T14:46:42.785Z,6104
2022-09-22T14:51:44.492Z,3567.52941
2022-09-22T14:56:46.242Z,5077.33333
2022-09-22T15:01:48.004Z,3794
2022-09-22T15:06:49.562Z,5077.33333
2022-09-22T15:11:51.290Z,6104
2022-09-22T15:16:53.325Z,4682.46154
2022-09-22T15:21:54.957Z,2510.66667
2022-09-22T15:26:56.701Z,2744
2022-09-22T15:31:58.514Z,2408
2022-09-22T15:37:00.262Z,2068.13793
2022-09-22T15:42:02.176Z,1810.66667
2022-09-22T15:47:04.137Z,1997.33333
2022-09-22T15:52:05.961Z,1151.84314
2022-09-22T15:57:07.695Z,1410.66667
2022-09-22T16:02:09.510Z,1344
2022-09-22T16:07:11.375Z,1227.33333
2022-09-22T16:12:12.878Z,953.83607
2022-09-22T16:17:15.092Z,811.60563
2022-09-22T16:22:16.605Z,620.92308
2022-09-22T16:27:18.256Z,547.92157
2022-09-22T16:32:19.834Z,407.15789
2022-09-22T16:37:21.379Z,351.94702
2022-09-22T16:42:23.824Z,250.46766
2022-09-22T16:47:25.879Z,444.81301
2022-09-22T16:52:27.620Z,660.27907
2022-09-22T16:57:29.264Z,744
2022-09-22T17:02:31.068Z,695.21951
2022-09-22T17:07:32.722Z,453.09091
2022-09-22T17:12:34.537Z,553.90099
2022-09-22T17:17:36.420Z,263.17098
2022-09-22T17:22:38.053Z,329
2022-09-22T17:27:39.744Z,417.84615
2022-09-22T17:32:41.369Z,403.70149
2022-09-22T17:37:43.010Z,231.85047
2022-09-22T17:42:44.750Z,199.60166
2022-09-22T17:47:46.699Z,148.65116
2022-09-22T17:52:48.418Z,124.11696
2022-09-22T17:57:50.131Z,129.54217
2022-09-22T18:02:51.969Z,114.63712
2022-09-22T18:07:53.892Z,108.26667
2022-09-22T18:12:55.688Z,104
2022-09-22T18:17:57.648Z,122.03468
2022-09-22T18:22:59.462Z,137.10345
2022-09-22T18:28:01.277Z,162.43972
2022-09-22T18:33:03.137Z,155.68385
2022-09-22T18:38:04.886Z,183.68872
2022-09-22T18:43:06.670Z,180.92308
2022-09-22T18:48:09.737Z,230.51163
2022-09-22T18:53:11.471Z,280.61202
2022-09-22T18:58:13.189Z,225.27854
2022-09-22T19:03:14.736Z,226.56881
2022-09-22T19:08:16.306Z,195.42857
2022-09-22T19:13:17.857Z,207.24786
2022-09-22T19:18:19.768Z,231.85047
2022-09-22T19:23:21.206Z,259.89744
2022-09-22T19:28:22.741Z,331.42138
2022-09-22T19:33:24.191Z,371.77778
2022-09-22T19:38:25.632Z,357.42282
2022-09-22T19:43:27.185Z,326.6087
2022-09-22T19:48:28.919Z,296
2022-09-22T19:53:30.457Z,282.46154
2022-09-22T19:58:32.183Z,269.92593
2022-09-22T20:03:33.680Z,261.52577
2022-09-22T20:08:35.132Z,268.21053
2022-09-22T20:13:36.759Z,269.92593
2022-09-22T20:18:41.349Z,326.6087
2022-09-22T20:23:43.014Z,296
2022-09-22T20:28:44.514Z,284.33149
2022-09-22T20:33:45.943Z,321.91411
2022-09-22T20:38:47.599Z,319.60976
2022-09-22T20:43:49.027Z,310.66667
2022-09-22T20:48:51.228Z,310.66667
2022-09-22T20:53:53.060Z,312.86228
2022-09-22T20:58:54.785Z,374.76923
2022-09-22T21:03:56.626Z,368.82759
2022-09-22T21:08:58.371Z,410.66667
2022-09-22T21:13:59.860Z,393.63504
2022-09-22T21:19:01.963Z,396.94118
2022-09-22T21:24:03.922Z,429.03937
2022-09-22T21:29:05.720Z,414.22901
2022-09-22T21:34:07.290Z,390.37681
2022-09-22T21:39:09.002Z,393.63504
2022-09-22T21:44:10.821Z,436.8
2022-09-22T21:49:12.564Z,436.8
2022-09-22T21:54:14.001Z,436.8
2022-09-22T21:59:15.436Z,466.0339
2022-09-22T22:04:17.260Z,457.33333
2022-09-22T22:09:18.834Z,440.77419
2022-09-22T22:14:20.313Z,440.77419
2022-09-22T22:19:22.044Z,461.64706
2022-09-22T22:24:23.587Z,363.04762
2022-09-22T22:29:25.227Z,403.70149
2022-09-22T22:34:26.762Z,390.37681
2022-09-22T22:39:28.437Z,363.04762
2022-09-22T22:44:29.992Z,371.77778
2022-09-22T22:49:31.718Z,414.22901
2022-09-22T22:54:33.465Z,400.2963
2022-09-22T22:59:34.919Z,384
2022-09-22T23:04:36.547Z,363.04762
2022-09-22T23:09:38.266Z,403.70149
2022-09-22T23:14:40.057Z,363.04762
2022-09-22T23:19:41.884Z,351.94702
2022-09-22T23:24:43.573Z,387.16547
2022-09-22T23:29:45.035Z,365.91781
2022-09-22T23:34:46.818Z,400.2963
2022-09-22T23:39:48.245Z,365.91781
2022-09-22T23:44:49.909Z,387.16547
2022-09-22T23:49:51.626Z,380.87943
2022-09-22T23:54:53.167Z,440.77419
2022-09-22T23:59:54.701Z,396.94118
